createdAt,value
2023-02-05T00:01:53.809Z,4.35
2023-02-05T00:04:22.142Z,4.10
2023-02-05T00:06:50.582Z,4.72
2023-02-05T00:09:18.969Z,4.15
2023-02-05T00:11:47.352Z,3.88
2023-02-05T00:14:15.725Z,4.35
2023-02-05T00:16:45.456Z,4.35
2023-02-05T00:19:13.915Z,4.00
2023-02-05T00:21:42.263Z,4.03
2023-02-05T00:24:10.683Z,3.95
2023-02-05T00:26:39.304Z,4.50
2023-02-05T00:29:07.725Z,4.20
2023-02-05T00:31:36.181Z,4.22
2023-02-05T00:34:05.964Z,4.50
2023-02-05T00:36:34.357Z,4.75
2023-02-05T00:39:02.842Z,4.25
2023-02-05T00:41:31.267Z,5.07
2023-02-05T00:44:02.209Z,4.60
2023-02-05T00:46:30.650Z,4.90
2023-02-05T00:48:59.114Z,4.55
2023-02-05T00:51:28.927Z,4.88
2023-02-05T00:53:57.504Z,4.72
2023-02-05T00:56:25.838Z,4.63
2023-02-05T00:58:54.607Z,4.93
2023-02-05T01:01:22.975Z,4.68
2023-02-05T01:03:51.396Z,4.95
2023-02-05T01:06:20.927Z,4.30
2023-02-05T01:08:50.675Z,4.60
2023-02-05T01:11:20.004Z,4.30
2023-02-05T01:13:48.376Z,4.30
2023-02-05T01:16:17.368Z,4.88
2023-02-05T01:18:45.802Z,4.10
2023-02-05T01:21:14.195Z,4.20
2023-02-05T01:23:42.542Z,4.45
2023-02-05T01:26:12.372Z,4.35
2023-02-05T01:28:40.844Z,4.13
2023-02-05T01:31:09.446Z,4.85
2023-02-05T01:33:37.875Z,4.72
2023-02-05T01:36:06.999Z,4.78
2023-02-05T01:38:35.500Z,4.68
2023-02-05T01:41:03.976Z,4.65
2023-02-05T01:43:33.744Z,5.00
2023-02-05T01:46:17.864Z,5.15
2023-02-05T01:48:49.743Z,5.45
2023-02-05T01:51:18.776Z,5.25
2023-02-05T01:53:49.333Z,4.90
2023-02-05T01:56:21.454Z,4.55
2023-02-05T01:58:54.797Z,5.35
2023-02-05T02:01:23.947Z,5.38
2023-02-05T02:03:55.319Z,4.90
2023-02-05T02:06:23.748Z,5.43
2023-02-05T02:08:52.175Z,4.88
2023-02-05T02:11:22.976Z,4.97
2023-02-05T02:13:55.320Z,4.93
2023-02-05T02:16:25.493Z,4.82
2023-02-05T02:18:55.225Z,5.25
2023-02-05T02:22:00.921Z,5.43
2023-02-05T02:27:36.675Z,5.05
2023-02-05T02:30:13.723Z,5.50
2023-02-05T02:32:47.464Z,6.65
2023-02-05T02:35:21.479Z,5.27
2023-02-05T02:37:57.611Z,5.82
2023-02-05T02:40:32.983Z,5.40
2023-02-05T02:43:08.157Z,5.13
2023-02-05T02:45:42.987Z,5.40
2023-02-05T02:48:12.491Z,4.93
2023-02-05T02:50:45.513Z,4.55
2023-02-05T02:53:19.852Z,4.60
2023-02-05T02:55:50.507Z,4.97
2023-02-05T02:58:25.532Z,4.97
2023-02-05T03:00:57.774Z,4.50
2023-02-05T03:03:29.089Z,5.28
2023-02-05T03:05:59.677Z,5.50
2023-02-05T03:08:31.266Z,4.68
2023-02-05T03:11:04.349Z,5.10
2023-02-05T03:13:34.224Z,5.15
2023-02-05T03:16:05.199Z,5.68
2023-02-05T03:18:34.045Z,5.82
2023-02-05T03:21:06.496Z,5.00
2023-02-05T03:23:34.970Z,5.22
2023-02-05T03:26:03.370Z,5.07
2023-02-05T03:28:46.983Z,4.78
2023-02-05T03:31:19.768Z,4.75
2023-02-05T03:33:57.777Z,5.22
2023-02-05T03:36:34.106Z,4.80
2023-02-05T03:39:17.655Z,4.85
2023-02-05T03:41:59.619Z,4.88
2023-02-05T03:45:00.262Z,4.82
2023-02-05T03:47:39.208Z,5.10
2023-02-05T03:50:18.219Z,4.60
2023-02-05T03:52:52.911Z,4.90
2023-02-05T03:55:26.038Z,4.68
2023-02-05T03:57:59.655Z,4.88
2023-02-05T04:00:31.238Z,5.18
2023-02-05T04:03:01.144Z,5.18
2023-02-05T04:05:33.505Z,5.25
2023-02-05T04:08:04.582Z,4.88
2023-02-05T04:10:39.500Z,4.72
2023-02-05T04:13:07.972Z,5.65
2023-02-05T04:15:38.786Z,6.45
2023-02-05T04:18:10.959Z,6.25
2023-02-05T04:20:39.582Z,5.60
2023-02-05T04:23:09.896Z,4.90
2023-02-05T04:25:39.334Z,5.70
2023-02-05T04:28:11.134Z,5.50
2023-02-05T04:30:41.682Z,5.20
2023-02-05T04:33:12.577Z,5.95
2023-02-05T04:35:41.316Z,6.30
2023-02-05T04:38:09.680Z,6.55
2023-02-05T04:40:38.381Z,6.68
2023-02-05T04:43:06.701Z,6.30
2023-02-05T04:45:36.712Z,7.32
2023-02-05T04:48:07.273Z,6.18
2023-02-05T04:50:35.770Z,5.78
2023-02-05T04:53:04.202Z,5.82
2023-02-05T04:55:33.642Z,5.97
2023-02-05T04:58:02.678Z,8.38
2023-02-05T05:00:31.210Z,6.47
2023-02-05T05:02:59.600Z,6.50
2023-02-05T05:05:29.351Z,5.75
2023-02-05T05:07:57.736Z,6.18
2023-02-05T05:10:26.043Z,5.70
2023-02-05T05:12:54.384Z,6.03
2023-02-05T05:15:22.733Z,5.10
2023-02-05T05:17:51.019Z,5.82
2023-02-05T05:20:19.554Z,5.05
2023-02-05T05:22:49.234Z,5.45
2023-02-05T05:25:18.089Z,5.22
2023-02-05T05:27:46.457Z,4.55
2023-02-05T05:30:15.217Z,5.00
2023-02-05T05:32:43.574Z,5.00
2023-02-05T05:35:11.958Z,5.20
2023-02-05T05:37:40.313Z,7.25
2023-02-05T05:40:30.798Z,6.45
2023-02-05T05:43:16.408Z,6.50
2023-02-05T05:45:44.794Z,6.18
2023-02-05T05:48:13.203Z,7.07
2023-02-05T05:50:41.530Z,9.63
2023-02-05T05:53:09.872Z,13.63
2023-02-05T05:55:39.638Z,13.43
2023-02-05T05:58:07.968Z,13.05
2023-02-05T06:00:37.663Z,10.93
2023-02-05T06:03:06.060Z,15.00
2023-02-05T06:05:35.382Z,15.43
2023-02-05T06:08:04.027Z,12.35
2023-02-05T06:10:33.203Z,13.20
2023-02-05T06:13:02.944Z,13.35
2023-02-05T06:15:31.264Z,13.25
2023-02-05T06:18:01.967Z,11.93
2023-02-05T06:20:30.439Z,11.07
2023-02-05T06:22:58.807Z,11.93
2023-02-05T06:25:27.220Z,11.10
2023-02-05T06:27:55.552Z,11.23
2023-02-05T06:30:25.318Z,15.30
2023-02-05T06:32:53.644Z,14.45
2023-02-05T06:35:22.041Z,11.43
2023-02-05T06:37:50.314Z,12.43
2023-02-05T06:40:22.203Z,15.90
2023-02-05T06:42:50.498Z,11.98
2023-02-05T06:45:19.039Z,14.30
2023-02-05T06:47:48.760Z,13.13
2023-02-05T06:50:17.541Z,13.95
2023-02-05T06:52:45.918Z,11.30
2023-02-05T06:55:14.317Z,14.35
2023-02-05T06:57:42.689Z,13.80
2023-02-05T07:00:12.558Z,16.10
2023-02-05T07:02:40.935Z,15.07
2023-02-05T07:05:10.826Z,14.43
2023-02-05T07:07:39.697Z,13.82
2023-02-05T07:10:08.459Z,13.32
2023-02-05T07:12:36.796Z,16.08
2023-02-05T07:15:05.369Z,13.30
2023-02-05T07:17:33.662Z,13.25
2023-02-05T07:20:01.997Z,13.57
2023-02-05T07:22:31.728Z,17.92
2023-02-05T07:25:02.139Z,18.27
2023-02-05T07:27:32.344Z,17.45
2023-02-05T07:30:00.738Z,16.00
2023-02-05T07:32:29.120Z,16.83
2023-02-05T07:34:57.487Z,15.68
2023-02-05T07:37:25.833Z,15.18
2023-02-05T07:39:55.555Z,16.23
2023-02-05T07:42:23.920Z,15.23
2023-02-05T07:44:58.103Z,16.85
2023-02-05T07:47:26.591Z,16.27
2023-02-05T07:49:54.949Z,16.73
2023-02-05T07:52:24.551Z,15.85
2023-02-05T07:54:52.977Z,13.88
2023-02-05T07:57:22.901Z,14.35
2023-02-05T07:59:55.282Z,13.00
2023-02-05T08:02:23.754Z,11.25
2023-02-05T08:04:57.449Z,10.27
2023-02-05T08:07:28.556Z,13.15
2023-02-05T08:10:00.160Z,11.95
2023-02-05T08:12:30.286Z,10.98
2023-02-05T08:15:04.462Z,9.63
2023-02-05T08:17:37.222Z,11.35
2023-02-05T08:20:07.949Z,14.65
2023-02-05T08:22:38.187Z,12.82
2023-02-05T08:25:08.218Z,13.95
2023-02-05T08:27:41.986Z,13.38
2023-02-05T08:30:15.019Z,12.43
2023-02-05T08:32:49.315Z,12.50
2023-02-05T08:35:19.439Z,13.10
2023-02-05T08:37:47.900Z,13.10
2023-02-05T08:40:16.396Z,13.35
2023-02-05T08:42:52.740Z,10.60
2023-02-05T08:45:21.718Z,8.27
2023-02-05T08:47:52.929Z,7.30
2023-02-05T08:50:22.335Z,7.75
2023-02-05T08:52:54.531Z,6.88
2023-02-05T08:55:23.220Z,5.85
2023-02-05T08:57:52.987Z,4.68
2023-02-05T09:00:22.078Z,4.05
2023-02-05T09:02:50.487Z,3.30
2023-02-05T09:05:19.287Z,2.78
2023-02-05T09:07:47.767Z,3.15
2023-02-05T09:10:16.098Z,1.95
2023-02-05T09:12:44.383Z,1.73
2023-02-05T09:15:14.144Z,1.60
2023-02-05T09:17:42.461Z,1.38
2023-02-05T09:20:12.442Z,1.40
2023-02-05T09:22:43.195Z,1.38
2023-02-05T09:25:14.377Z,1.70
2023-02-05T09:27:42.838Z,1.80
2023-02-05T09:30:16.331Z,1.70
2023-02-05T09:32:47.782Z,1.65
2023-02-05T09:35:16.307Z,1.60
2023-02-05T09:37:45.008Z,2.42
2023-02-05T09:40:21.820Z,2.42
2023-02-05T09:43:01.668Z,2.50
2023-02-05T09:45:39.735Z,2.38
2023-02-05T09:48:37.450Z,2.20
2023-02-05T09:51:13.416Z,1.80
2023-02-05T09:53:47.196Z,1.85
2023-02-05T09:56:18.185Z,1.60
2023-02-05T09:58:50.012Z,3.90
2023-02-05T10:01:24.294Z,2.33
2023-02-05T10:03:57.514Z,2.60
2023-02-05T10:06:49.507Z,1.90
2023-02-05T10:09:32.741Z,2.15
2023-02-05T10:12:08.258Z,2.50
2023-02-05T10:14:49.401Z,3.60
2023-02-05T10:17:35.984Z,4.10
2023-02-05T10:20:16.700Z,6.93
2023-02-05T10:22:57.242Z,5.80
2023-02-05T10:25:45.417Z,5.50
2023-02-05T10:28:30.868Z,5.15
2023-02-05T10:31:07.540Z,4.72
2023-02-05T10:33:49.897Z,4.53
2023-02-05T10:36:22.685Z,4.53
2023-02-05T10:38:52.852Z,5.00
2023-02-05T10:41:26.710Z,4.13
2023-02-05T10:44:03.233Z,4.30
2023-02-05T10:46:34.508Z,3.58
2023-02-05T10:49:11.415Z,3.75
2023-02-05T10:51:42.329Z,3.00
2023-02-05T10:54:28.053Z,3.75
2023-02-05T10:56:58.179Z,3.13
2023-02-05T10:59:29.665Z,3.20
2023-02-05T11:02:02.964Z,3.33
2023-02-05T11:04:39.854Z,3.30
2023-02-05T11:07:13.402Z,3.28
2023-02-05T11:09:41.815Z,2.75
2023-02-05T11:12:22.769Z,3.65
2023-02-05T11:14:58.853Z,3.53
2023-02-05T11:17:33.091Z,3.22
2023-02-05T11:20:06.976Z,3.40
2023-02-05T11:22:37.437Z,3.47
2023-02-05T11:25:08.954Z,2.90
2023-02-05T11:27:38.448Z,3.00
2023-02-05T11:30:52.145Z,2.72
2023-02-05T11:36:32.234Z,2.08
2023-02-05T11:39:05.717Z,1.90
2023-02-05T11:41:48.208Z,2.03
2023-02-05T11:44:30.066Z,2.20
2023-02-05T11:47:08.897Z,1.70
2023-02-05T11:49:57.658Z,1.90
2023-02-05T11:52:38.511Z,1.55
2023-02-05T11:55:11.203Z,1.63
2023-02-05T11:57:45.272Z,1.83
2023-02-05T12:00:29.163Z,2.17
2023-02-05T12:03:16.716Z,1.88
2023-02-05T12:05:51.917Z,1.60
2023-02-05T12:08:33.424Z,1.73
2023-02-05T12:11:15.084Z,1.73
2023-02-05T12:13:57.011Z,1.77
2023-02-05T12:16:41.656Z,2.17
2023-02-05T12:19:19.600Z,1.70
2023-02-05T12:21:52.713Z,4.93
2023-02-05T12:24:54.122Z,3.78
2023-02-05T12:27:40.816Z,2.10
2023-02-05T12:30:27.540Z,4.22
2023-02-05T12:33:08.159Z,2.15
2023-02-05T12:35:52.898Z,2.05
2023-02-05T12:38:32.721Z,2.13
2023-02-05T12:41:15.289Z,1.90
2023-02-05T12:43:47.721Z,3.28
2023-02-05T12:46:34.754Z,2.10
2023-02-05T12:49:19.658Z,2.33
2023-02-05T12:52:01.041Z,2.00
2023-02-05T12:54:46.254Z,1.85
2023-02-05T12:57:20.402Z,1.77
2023-02-05T12:59:54.433Z,1.90
2023-02-05T13:02:33.428Z,2.22
2023-02-05T13:05:13.945Z,2.20
2023-02-05T13:07:49.229Z,2.10
2023-02-05T13:10:23.562Z,2.65
2023-02-05T13:12:58.869Z,2.40
2023-02-05T13:15:31.192Z,2.60
2023-02-05T13:18:05.771Z,2.53
2023-02-05T13:20:56.491Z,2.65
2023-02-05T13:23:42.822Z,2.63
2023-02-05T13:26:31.734Z,2.67
2023-02-05T13:29:06.799Z,2.47
2023-02-05T13:31:39.205Z,2.40
2023-02-05T13:34:10.215Z,2.63
2023-02-05T13:37:16.315Z,2.03
2023-02-05T13:40:08.329Z,2.10
2023-02-05T13:43:02.532Z,1.95
2023-02-05T13:46:15.412Z,1.80
2023-02-05T13:49:06.280Z,1.77
2023-02-05T13:51:47.741Z,2.08
2023-02-05T13:54:48.886Z,1.77
2023-02-05T13:57:53.450Z,1.52
2023-02-05T14:00:22.162Z,2.00
2023-02-05T14:02:56.788Z,1.85
2023-02-05T14:08:03.184Z,1.65
2023-02-05T14:10:34.508Z,2.30
2023-02-05T14:13:18.838Z,1.67
2023-02-05T14:15:47.557Z,1.90
2023-02-05T14:18:51.819Z,1.67
2023-02-05T14:21:58.678Z,1.70
2023-02-05T14:24:43.606Z,1.30
2023-02-05T14:27:43.053Z,1.58
2023-02-05T14:30:38.330Z,1.55
2023-02-05T14:33:44.372Z,1.42
2023-02-05T14:36:41.266Z,1.70
2023-02-05T14:39:22.306Z,1.40
2023-02-05T14:41:58.659Z,1.40
2023-02-05T14:44:29.675Z,1.40
2023-02-05T14:47:18.254Z,1.65
2023-02-05T14:49:49.292Z,1.63
2023-02-05T14:52:28.356Z,1.70
2023-02-05T14:55:00.917Z,1.92
2023-02-05T14:57:36.399Z,2.03
2023-02-05T15:00:08.753Z,2.00
2023-02-05T15:03:22.112Z,2.00
2023-02-05T15:05:56.487Z,1.80
2023-02-05T15:08:41.336Z,2.10
2023-02-05T15:11:16.912Z,1.70
2023-02-05T15:14:18.246Z,2.10
2023-02-05T15:16:46.723Z,1.73
2023-02-05T15:19:17.557Z,1.73
2023-02-05T15:21:50.882Z,1.42
2023-02-05T15:24:22.864Z,1.80
2023-02-05T15:26:56.002Z,1.70
2023-02-05T15:29:28.776Z,1.67
2023-02-05T15:32:01.683Z,1.73
2023-02-05T15:34:38.322Z,1.83
2023-02-05T15:37:16.640Z,1.98
2023-02-05T15:39:52.039Z,1.77
2023-02-05T15:42:23.766Z,1.95
2023-02-05T15:44:52.194Z,1.65
2023-02-05T15:47:23.874Z,2.70
2023-02-05T15:49:56.799Z,1.98
2023-02-05T15:52:27.898Z,1.75
2023-02-05T15:55:00.977Z,2.10
2023-02-05T15:57:32.067Z,2.35
2023-02-05T16:00:02.306Z,2.10
2023-02-05T16:02:32.857Z,2.20
2023-02-05T16:05:03.615Z,2.42
2023-02-05T16:07:37.426Z,2.58
2023-02-05T16:10:18.783Z,2.38
2023-02-05T16:12:58.713Z,1.88
2023-02-05T16:15:31.846Z,2.10
2023-02-05T16:18:04.289Z,2.20
2023-02-05T16:20:36.920Z,2.20
2023-02-05T16:23:08.695Z,1.85
2023-02-05T16:25:45.006Z,2.10
2023-02-05T16:28:17.965Z,2.20
2023-02-05T16:30:49.388Z,2.08
2023-02-05T16:33:27.753Z,2.05
2023-02-05T16:38:43.562Z,2.20
2023-02-05T16:41:24.924Z,2.15
2023-02-05T16:43:55.517Z,1.80
2023-02-05T16:46:29.555Z,1.80
2023-02-05T16:49:00.583Z,2.25
2023-02-05T16:51:35.769Z,1.73
2023-02-05T16:54:31.410Z,1.90
2023-02-05T16:57:05.288Z,2.05
2023-02-05T16:59:40.485Z,2.25
2023-02-05T17:02:26.666Z,2.20
2023-02-05T17:04:57.775Z,1.63
2023-02-05T17:07:26.933Z,1.80
2023-02-05T17:10:10.144Z,1.75
2023-02-05T17:12:40.838Z,3.50
2023-02-05T17:15:29.019Z,2.53
2023-02-05T17:17:59.221Z,2.05
2023-02-05T17:20:28.761Z,2.28
2023-02-05T17:23:11.217Z,2.10
2023-02-05T17:25:43.804Z,2.08
2023-02-05T17:28:16.804Z,2.47
2023-02-05T17:30:46.863Z,2.53
2023-02-05T17:33:18.180Z,2.47
2023-02-05T17:35:46.660Z,2.30
2023-02-05T17:38:15.289Z,1.95
2023-02-05T17:40:45.681Z,2.03
2023-02-05T17:43:14.508Z,2.05
2023-02-05T17:45:44.287Z,4.85
2023-02-05T17:48:12.877Z,4.20
2023-02-05T17:50:41.284Z,6.78
2023-02-05T17:53:11.344Z,5.43
2023-02-05T17:55:40.359Z,4.05
2023-02-05T17:58:10.076Z,3.45
2023-02-05T18:00:38.451Z,3.00
2023-02-05T18:03:06.791Z,3.10
2023-02-05T18:05:35.186Z,2.40
2023-02-05T18:08:03.807Z,2.30
2023-02-05T18:10:32.907Z,3.20
2023-02-05T18:13:02.972Z,2.50
2023-02-05T18:15:33.290Z,2.25
2023-02-05T18:18:01.690Z,2.60
2023-02-05T18:20:30.018Z,2.80
2023-02-05T18:22:58.344Z,2.50
2023-02-05T18:25:26.765Z,2.28
2023-02-05T18:27:56.179Z,2.33
2023-02-05T18:30:24.728Z,2.42
2023-02-05T18:32:54.499Z,2.38
2023-02-05T18:35:22.872Z,3.05
2023-02-05T18:37:51.554Z,2.97
2023-02-05T18:40:20.018Z,3.10
2023-02-05T18:42:49.567Z,2.20
2023-02-05T18:45:18.158Z,2.47
2023-02-05T18:47:46.724Z,2.22
2023-02-05T18:50:18.259Z,2.38
2023-02-05T18:52:48.148Z,2.00
2023-02-05T18:55:16.751Z,2.15
2023-02-05T18:57:45.088Z,2.40
2023-02-05T19:00:14.470Z,2.70
2023-02-05T19:02:42.831Z,2.95
2023-02-05T19:05:11.561Z,2.50
2023-02-05T19:07:41.438Z,2.40
2023-02-05T19:10:09.964Z,2.22
2023-02-05T19:12:38.336Z,2.33
2023-02-05T19:15:07.528Z,2.55
2023-02-05T19:17:35.870Z,2.95
2023-02-05T19:20:05.853Z,2.72
2023-02-05T19:22:34.228Z,2.30
2023-02-05T19:25:04.022Z,2.42
2023-02-05T19:27:32.369Z,2.70
2023-02-05T19:30:00.857Z,2.60
2023-02-05T19:32:29.303Z,2.70
2023-02-05T19:34:59.592Z,2.50
2023-02-05T19:37:27.981Z,2.90
2023-02-05T19:39:56.372Z,2.40
2023-02-05T19:42:27.246Z,2.10
2023-02-05T19:44:55.612Z,2.75
2023-02-05T19:47:24.052Z,2.10
2023-02-05T19:49:54.016Z,2.85
2023-02-05T19:52:22.397Z,2.38
2023-02-05T19:54:50.736Z,2.22
2023-02-05T19:57:19.040Z,2.20
2023-02-05T19:59:48.852Z,2.55
2023-02-05T20:02:19.306Z,2.92
2023-02-05T20:04:47.719Z,2.42
2023-02-05T20:07:16.142Z,2.15
2023-02-05T20:09:44.534Z,2.88
2023-02-05T20:12:13.175Z,2.38
2023-02-05T20:14:41.609Z,2.45
2023-02-05T20:17:16.197Z,2.20
2023-02-05T20:22:12.636Z,2.17
2023-02-05T20:24:41.055Z,3.00
2023-02-05T20:27:09.394Z,2.13
2023-02-05T20:29:55.265Z,2.35
2023-02-05T20:32:25.027Z,2.28
2023-02-05T20:34:53.428Z,2.28
2023-02-05T20:37:22.006Z,2.70
2023-02-05T20:39:50.415Z,2.35
2023-02-05T20:42:18.791Z,2.60
2023-02-05T20:44:47.737Z,2.92
2023-02-05T20:47:16.305Z,2.50
2023-02-05T20:49:46.075Z,2.28
2023-02-05T20:52:14.504Z,3.10
2023-02-05T20:54:42.937Z,2.47
2023-02-05T20:57:11.443Z,2.33
2023-02-05T20:59:39.868Z,2.63
2023-02-05T21:02:08.743Z,2.75
2023-02-05T21:04:37.751Z,2.75
2023-02-05T21:07:07.628Z,2.28
2023-02-05T21:09:36.003Z,3.33
2023-02-05T21:12:04.593Z,2.97
2023-02-05T21:14:32.960Z,3.33
2023-02-05T21:17:01.353Z,2.60
2023-02-05T21:19:29.759Z,2.63
2023-02-05T21:21:59.273Z,2.30
2023-02-05T21:24:29.059Z,2.47
2023-02-05T21:26:57.600Z,2.00
2023-02-05T21:29:25.942Z,2.40
2023-02-05T21:31:55.543Z,2.33
2023-02-05T21:34:26.274Z,2.53
2023-02-05T21:36:55.936Z,2.00
2023-02-05T21:39:25.455Z,2.15
2023-02-05T21:41:55.529Z,2.08
2023-02-05T21:44:23.982Z,2.10
2023-02-05T21:46:53.683Z,1.73
2023-02-05T21:49:22.290Z,2.45
2023-02-05T21:51:53.112Z,2.03
2023-02-05T21:54:25.367Z,1.90
2023-02-05T21:56:56.239Z,1.70
2023-02-05T21:59:24.705Z,2.00
2023-02-05T22:01:53.247Z,1.65
2023-02-05T22:04:21.722Z,1.70
2023-02-05T22:06:51.645Z,1.50
2023-02-05T22:09:20.590Z,1.50
2023-02-05T22:11:50.971Z,1.80
2023-02-05T22:14:20.705Z,1.60
2023-02-05T22:16:49.226Z,1.60
2023-02-05T22:19:17.542Z,1.70
2023-02-05T22:21:45.906Z,1.75
2023-02-05T22:24:16.046Z,1.52
2023-02-05T22:26:45.545Z,1.65
2023-02-05T22:29:15.689Z,1.40
2023-02-05T22:31:46.346Z,1.60
2023-02-05T22:34:14.705Z,1.33
2023-02-05T22:36:43.082Z,1.70
2023-02-05T22:39:11.650Z,1.70
2023-02-05T22:41:43.227Z,1.48
2023-02-05T22:44:12.855Z,1.70
2023-02-05T22:46:43.050Z,1.65
2023-02-05T22:49:15.076Z,1.45
2023-02-05T22:51:43.534Z,1.60
2023-02-05T22:54:13.992Z,1.42
2023-02-05T22:56:42.349Z,1.20
2023-02-05T22:59:10.703Z,1.48
2023-02-05T23:01:39.308Z,1.60
2023-02-05T23:04:09.551Z,1.65
2023-02-05T23:06:41.342Z,1.60
2023-02-05T23:09:12.385Z,1.60
2023-02-05T23:11:40.833Z,1.50
2023-02-05T23:14:10.020Z,1.48
2023-02-05T23:16:40.981Z,1.30
2023-02-05T23:19:12.250Z,1.52
2023-02-05T23:21:42.454Z,1.65
2023-02-05T23:24:11.593Z,1.40
2023-02-05T23:26:42.601Z,1.42
2023-02-05T23:29:12.148Z,1.42
2023-02-05T23:31:41.011Z,1.50
2023-02-05T23:34:09.756Z,1.52
2023-02-05T23:36:38.169Z,1.63
2023-02-05T23:39:07.843Z,1.70
2023-02-05T23:41:36.581Z,1.63
2023-02-05T23:44:07.641Z,1.75
2023-02-05T23:46:37.104Z,1.60
2023-02-05T23:49:05.907Z,1.40
2023-02-05T23:51:35.308Z,1.80
2023-02-05T23:54:04.060Z,1.60
2023-02-05T23:56:33.928Z,1.33
2023-02-05T23:59:02.724Z,1.38
